createdAt,value
2022-10-22T00:01:48.230Z,96832.25
2022-10-22T00:04:17.200Z,96831.94
2022-10-22T00:06:46.075Z,96826.13
2022-10-22T00:09:15.527Z,96825.91
2022-10-22T00:11:44.998Z,96828.78
2022-10-22T00:14:13.908Z,96832.03
2022-10-22T00:16:42.844Z,96837.34
2022-10-22T00:19:13.853Z,96836.28
2022-10-22T00:21:42.746Z,96846.03
2022-10-22T00:24:11.575Z,96849.97
2022-10-22T00:26:40.995Z,96850.19
2022-10-22T00:29:09.835Z,96848.81
2022-10-22T00:31:38.630Z,96848.41
2022-10-22T00:34:07.465Z,96844.53
2022-10-22T00:36:36.328Z,96837.91
2022-10-22T00:39:05.204Z,96843.75
2022-10-22T00:41:34.049Z,96840.00
2022-10-22T00:44:06.579Z,96838.22
2022-10-22T00:46:35.428Z,96836.44
2022-10-22T00:49:05.562Z,96847.59
2022-10-22T00:51:36.913Z,96838.69
2022-10-22T00:54:09.348Z,96839.75
2022-10-22T00:56:38.979Z,96841.72
2022-10-22T01:01:42.926Z,96848.22
2022-10-22T01:04:12.421Z,96844.94
2022-10-22T01:06:41.476Z,96845.75
2022-10-22T01:09:10.310Z,96849.88
2022-10-22T01:12:06.886Z,96859.47
2022-10-22T01:15:11.973Z,96851.25
2022-10-22T01:18:05.060Z,96859.06
2022-10-22T01:20:55.532Z,96860.81
2022-10-22T01:23:48.833Z,96865.06
2022-10-22T01:26:38.803Z,96858.31
2022-10-22T01:29:12.982Z,96855.13
2022-10-22T01:31:54.008Z,96853.44
2022-10-22T01:34:24.508Z,96851.91
2022-10-22T01:36:55.467Z,96849.09
2022-10-22T01:39:26.129Z,96845.50
2022-10-22T01:41:58.672Z,96856.16
2022-10-22T01:44:31.849Z,96852.31
2022-10-22T01:47:33.371Z,96858.63
2022-10-22T01:50:23.933Z,96858.00
2022-10-22T01:53:01.779Z,96859.13
2022-10-22T01:55:56.528Z,96849.84
2022-10-22T01:58:54.403Z,96855.34
2022-10-22T02:01:38.148Z,96848.47
2022-10-22T02:04:21.121Z,96861.72
2022-10-22T02:06:54.128Z,96857.22
2022-10-22T02:09:26.064Z,96863.56
2022-10-22T02:11:57.919Z,96842.13
2022-10-22T02:14:31.006Z,96854.47
2022-10-22T02:17:00.991Z,96861.38
2022-10-22T02:20:06.759Z,96861.97
2022-10-22T02:22:37.762Z,96857.72
2022-10-22T02:25:08.183Z,96866.38
2022-10-22T02:27:50.159Z,96874.34
2022-10-22T02:30:22.110Z,96872.59
2022-10-22T02:33:12.780Z,96868.91
2022-10-22T02:35:43.395Z,96873.56
2022-10-22T02:38:14.224Z,96871.81
2022-10-22T02:40:43.156Z,96870.25
2022-10-22T02:43:12.047Z,96875.59
2022-10-22T02:45:42.113Z,96872.00
2022-10-22T02:48:11.181Z,96868.13
2022-10-22T02:50:40.120Z,96869.16
2022-10-22T02:53:08.964Z,96870.00
2022-10-22T02:55:37.718Z,96871.00
2022-10-22T02:58:06.463Z,96859.69
2022-10-22T03:00:36.571Z,96866.50
2022-10-22T03:03:06.372Z,96861.88
2022-10-22T03:05:35.129Z,96866.50
2022-10-22T03:08:04.298Z,96867.00
2022-10-22T03:10:33.134Z,96866.63
2022-10-22T03:13:02.687Z,96868.06
2022-10-22T03:15:31.650Z,96866.53
2022-10-22T03:18:00.476Z,96854.81
2022-10-22T03:20:29.322Z,96861.69
2022-10-22T03:22:58.769Z,96855.28
2022-10-22T03:25:29.287Z,96856.97
2022-10-22T03:28:04.164Z,96863.09
2022-10-22T03:30:33.082Z,96855.06
2022-10-22T03:33:01.964Z,96859.03
2022-10-22T03:35:32.189Z,96860.59
2022-10-22T03:38:02.300Z,96859.22
2022-10-22T03:40:31.111Z,96858.28
2022-10-22T03:43:00.093Z,96858.59
2022-10-22T03:45:28.930Z,96846.53
2022-10-22T03:47:58.524Z,96850.78
2022-10-22T03:50:27.385Z,96852.50
2022-10-22T03:52:56.335Z,96858.00
2022-10-22T03:55:26.135Z,96846.88
2022-10-22T03:57:54.931Z,96846.00
2022-10-22T04:00:26.513Z,96845.03
2022-10-22T04:02:55.405Z,96853.53
2022-10-22T04:05:24.744Z,96853.19
2022-10-22T04:07:53.793Z,96853.06
2022-10-22T04:10:22.608Z,96853.38
2022-10-22T04:12:51.440Z,96831.56
2022-10-22T04:15:20.444Z,96856.00
2022-10-22T04:17:49.641Z,96857.03
2022-10-22T04:20:18.569Z,96859.88
2022-10-22T04:22:47.419Z,96852.72
2022-10-22T04:25:16.307Z,96851.59
2022-10-22T04:27:45.121Z,96847.66
2022-10-22T04:30:14.750Z,96845.25
2022-10-22T04:32:45.387Z,96841.84
2022-10-22T04:35:14.670Z,96835.25
2022-10-22T04:37:43.569Z,96833.28
2022-10-22T04:40:13.050Z,96848.69
2022-10-22T04:42:42.028Z,96848.72
2022-10-22T04:45:11.912Z,96855.78
2022-10-22T04:47:40.842Z,96846.41
2022-10-22T04:50:10.286Z,96851.53
2022-10-22T04:52:39.077Z,96843.91
2022-10-22T04:55:08.165Z,96849.44
2022-10-22T04:57:37.170Z,96847.69
2022-10-22T05:00:07.911Z,96841.31
2022-10-22T05:02:37.331Z,96841.53
2022-10-22T05:05:06.296Z,96844.81
2022-10-22T05:07:35.429Z,96839.09
2022-10-22T05:10:04.379Z,96843.88
2022-10-22T05:12:33.116Z,96845.03
2022-10-22T05:15:01.948Z,96842.63
2022-10-22T05:17:32.121Z,96847.31
2022-10-22T05:20:00.930Z,96845.22
2022-10-22T05:22:29.745Z,96853.59
2022-10-22T05:24:58.755Z,96839.97
2022-10-22T05:27:27.682Z,96855.75
2022-10-22T05:29:57.116Z,96847.78
2022-10-22T05:32:26.391Z,96850.81
2022-10-22T05:34:55.130Z,96850.31
2022-10-22T05:37:24.060Z,96847.72
2022-10-22T05:40:01.824Z,96845.00
2022-10-22T05:42:41.754Z,96824.22
2022-10-22T05:45:11.036Z,96839.66
2022-10-22T05:47:39.798Z,96836.47
2022-10-22T05:50:09.072Z,96828.13
2022-10-22T05:52:38.549Z,96828.31
2022-10-22T05:55:07.984Z,96821.28
2022-10-22T05:57:36.783Z,96810.72
2022-10-22T06:00:07.094Z,96819.59
2022-10-22T06:02:35.917Z,96825.13
2022-10-22T06:05:04.980Z,96824.53
2022-10-22T06:07:34.369Z,96814.38
2022-10-22T06:10:03.328Z,96809.41
2022-10-22T06:12:32.094Z,96819.28
2022-10-22T06:15:01.445Z,96812.63
2022-10-22T06:17:32.575Z,96811.84
2022-10-22T06:20:01.576Z,96815.34
2022-10-22T06:22:31.852Z,96807.69
2022-10-22T06:25:00.694Z,96799.41
2022-10-22T06:27:29.698Z,96805.91
2022-10-22T06:29:58.415Z,96808.44
2022-10-22T06:32:27.428Z,96803.13
2022-10-22T06:34:57.169Z,96794.22
2022-10-22T06:37:26.392Z,96794.91
2022-10-22T06:39:55.418Z,96799.41
2022-10-22T06:42:24.192Z,96793.16
2022-10-22T06:44:53.077Z,96778.34
2022-10-22T06:47:22.128Z,96793.84
2022-10-22T06:49:50.887Z,96786.78
2022-10-22T06:52:19.720Z,96774.72
2022-10-22T06:54:48.799Z,96776.72
2022-10-22T06:57:17.758Z,96772.78
2022-10-22T06:59:47.442Z,96762.63
2022-10-22T07:02:17.852Z,96770.44
2022-10-22T07:04:47.255Z,96758.19
2022-10-22T07:07:16.215Z,96754.44
2022-10-22T07:09:48.115Z,96751.84
2022-10-22T07:12:17.613Z,96743.78
2022-10-22T07:14:46.393Z,96743.06
2022-10-22T07:17:15.623Z,96739.09
2022-10-22T07:19:48.420Z,96738.50
2022-10-22T07:22:20.238Z,96734.50
2022-10-22T07:24:49.028Z,96713.91
2022-10-22T07:27:17.836Z,96718.38
2022-10-22T07:29:47.548Z,96723.81
2022-10-22T07:32:17.961Z,96702.84
2022-10-22T07:34:47.693Z,96716.75
2022-10-22T07:37:16.456Z,96722.25
2022-10-22T07:39:47.244Z,96717.81
2022-10-22T07:42:16.660Z,96720.63
2022-10-22T07:44:45.568Z,96721.59
2022-10-22T07:47:14.336Z,96708.56
2022-10-22T07:49:43.365Z,96713.00
2022-10-22T07:52:12.197Z,96714.69
2022-10-22T07:54:40.981Z,96699.84
2022-10-22T07:57:09.781Z,96704.78
2022-10-22T07:59:38.576Z,96699.25
2022-10-22T08:02:10.166Z,96696.16
2022-10-22T08:04:39.498Z,96689.94
2022-10-22T08:07:08.361Z,96693.91
2022-10-22T08:09:38.466Z,96683.13
2022-10-22T08:12:07.960Z,96677.72
2022-10-22T08:14:36.988Z,96690.44
2022-10-22T08:17:05.786Z,96688.91
2022-10-22T08:19:35.972Z,96693.56
2022-10-22T08:22:05.182Z,96700.56
2022-10-22T08:24:35.811Z,96696.28
2022-10-22T08:27:06.654Z,96696.84
2022-10-22T08:29:35.744Z,96696.09
2022-10-22T08:32:05.441Z,96688.59
2022-10-22T08:34:34.429Z,96697.66
2022-10-22T08:37:03.229Z,96687.13
2022-10-22T08:39:32.171Z,96694.16
2022-10-22T08:42:21.562Z,96700.00
2022-10-22T08:45:28.430Z,96711.78
2022-10-22T08:48:32.296Z,96707.22
2022-10-22T08:51:01.790Z,96713.25
2022-10-22T08:53:41.770Z,96709.78
2022-10-22T08:56:10.663Z,96716.34
2022-10-22T08:59:18.752Z,96713.72
2022-10-22T09:01:52.640Z,96713.78
2022-10-22T09:04:52.139Z,96694.34
2022-10-22T09:07:21.385Z,96703.63
2022-10-22T09:09:53.058Z,96705.78
2022-10-22T09:12:25.376Z,96700.44
2022-10-22T09:14:55.425Z,96702.13
2022-10-22T09:17:42.010Z,96701.75
2022-10-22T09:20:26.699Z,96697.44
2022-10-22T09:23:31.747Z,96707.66
2022-10-22T09:26:01.472Z,96702.31
2022-10-22T09:28:30.317Z,96681.69
2022-10-22T09:33:31.381Z,96684.53
2022-10-22T09:36:07.488Z,96686.56
2022-10-22T09:38:45.496Z,96681.66
2022-10-22T09:41:16.308Z,96674.56
2022-10-22T09:43:48.366Z,96678.75
2022-10-22T09:46:20.631Z,96668.94
2022-10-22T09:49:03.389Z,96657.91
2022-10-22T09:51:58.581Z,96664.34
2022-10-22T09:54:27.302Z,96669.38
2022-10-22T09:57:03.908Z,96663.09
2022-10-22T09:59:39.444Z,96654.28
2022-10-22T10:02:38.308Z,96665.69
2022-10-22T10:05:09.343Z,96671.16
2022-10-22T10:07:38.320Z,96646.28
2022-10-22T10:10:29.445Z,96665.34
2022-10-22T10:13:19.817Z,96649.72
2022-10-22T10:15:57.804Z,96646.44
2022-10-22T10:18:51.137Z,96652.56
2022-10-22T10:21:56.088Z,96652.78
2022-10-22T10:24:58.373Z,96639.84
2022-10-22T10:27:41.663Z,96654.03
2022-10-22T10:30:13.373Z,96646.28
2022-10-22T10:33:11.065Z,96639.84
2022-10-22T10:36:00.051Z,96629.38
2022-10-22T10:38:36.629Z,96633.63
2022-10-22T10:41:13.827Z,96637.13
2022-10-22T10:44:06.902Z,96641.66
2022-10-22T10:46:48.322Z,96638.31
2022-10-22T10:49:25.603Z,96634.72
2022-10-22T10:52:41.747Z,96635.50
2022-10-22T10:55:23.163Z,96632.81
2022-10-22T10:58:35.247Z,96626.06
2022-10-22T11:01:25.960Z,96634.84
2022-10-22T11:04:21.067Z,96630.94
2022-10-22T11:06:51.542Z,96637.22
2022-10-22T11:09:42.446Z,96620.22
2022-10-22T11:12:24.346Z,96627.41
2022-10-22T11:15:26.458Z,96632.44
2022-10-22T11:18:13.524Z,96632.09
2022-10-22T11:21:08.721Z,96626.16
2022-10-22T11:23:51.529Z,96620.50
2022-10-22T11:26:45.875Z,96617.53
2022-10-22T11:29:25.651Z,96611.38
2022-10-22T11:31:58.559Z,96594.66
2022-10-22T11:34:47.268Z,96604.44
2022-10-22T11:37:17.456Z,96606.06
2022-10-22T11:39:51.911Z,96596.34
2022-10-22T11:42:24.347Z,96595.56
2022-10-22T11:45:03.980Z,96592.06
2022-10-22T11:47:54.435Z,96584.84
2022-10-22T11:50:48.662Z,96596.13
2022-10-22T11:53:26.677Z,96604.03
2022-10-22T11:56:10.486Z,96602.59
2022-10-22T11:58:39.993Z,96597.69
2022-10-22T12:01:09.531Z,96600.38
2022-10-22T12:04:22.474Z,96598.50
2022-10-22T12:07:32.307Z,96595.47
2022-10-22T12:10:07.036Z,96586.66
2022-10-22T12:12:40.616Z,96584.41
2022-10-22T12:15:26.628Z,96579.25
2022-10-22T12:18:02.745Z,96593.47
2022-10-22T12:20:32.639Z,96580.50
2022-10-22T12:23:01.807Z,96580.97
2022-10-22T12:25:35.813Z,96582.06
2022-10-22T12:28:05.280Z,96579.06
2022-10-22T12:30:35.542Z,96578.91
2022-10-22T12:33:07.766Z,96581.94
2022-10-22T12:35:44.701Z,96581.16
2022-10-22T12:38:20.949Z,96582.72
2022-10-22T12:40:52.065Z,96563.91
2022-10-22T12:43:31.412Z,96565.72
2022-10-22T12:46:00.881Z,96584.28
2022-10-22T12:48:35.006Z,96578.91
2022-10-22T12:51:08.661Z,96575.25
2022-10-22T12:53:46.318Z,96578.28
2022-10-22T12:56:21.770Z,96565.97
2022-10-22T12:58:58.752Z,96564.41
2022-10-22T13:01:29.665Z,96552.09
2022-10-22T13:04:33.606Z,96548.66
2022-10-22T13:07:15.971Z,96545.84
2022-10-22T13:09:59.746Z,96551.09
2022-10-22T13:12:37.078Z,96539.91
2022-10-22T13:15:28.063Z,96539.13
2022-10-22T13:18:06.355Z,96537.53
2022-10-22T13:20:38.023Z,96532.53
2022-10-22T13:23:07.372Z,96530.94
2022-10-22T13:25:41.201Z,96507.41
2022-10-22T13:28:22.210Z,96523.88
2022-10-22T13:31:21.826Z,96521.31
2022-10-22T13:34:02.467Z,96525.59
2022-10-22T13:36:34.583Z,96522.13
2022-10-22T13:39:08.515Z,96525.13
2022-10-22T13:41:41.220Z,96524.53
2022-10-22T13:44:10.082Z,96526.75
2022-10-22T13:46:43.225Z,96507.50
2022-10-22T13:49:16.749Z,96514.53
2022-10-22T13:51:46.249Z,96525.13
2022-10-22T13:54:18.786Z,96497.34
2022-10-22T13:56:47.957Z,96507.81
2022-10-22T13:59:19.711Z,96519.91
2022-10-22T14:01:53.914Z,96499.66
2022-10-22T14:04:23.474Z,96502.97
2022-10-22T14:06:58.750Z,96491.69
2022-10-22T14:09:30.373Z,96494.38
2022-10-22T14:11:59.174Z,96486.19
2022-10-22T14:14:28.358Z,96490.13
2022-10-22T14:16:57.439Z,96483.41
2022-10-22T14:19:26.235Z,96483.91
2022-10-22T14:21:55.146Z,96472.28
2022-10-22T14:24:23.988Z,96470.13
2022-10-22T14:26:52.802Z,96481.41
2022-10-22T14:29:21.610Z,96484.09
2022-10-22T14:31:50.505Z,96469.91
2022-10-22T14:34:19.290Z,96463.19
2022-10-22T14:36:48.162Z,96470.25
2022-10-22T14:39:19.264Z,96453.59
2022-10-22T14:41:48.774Z,96468.38
2022-10-22T14:44:17.573Z,96471.03
2022-10-22T14:46:47.381Z,96479.34
2022-10-22T14:49:16.103Z,96482.94
2022-10-22T14:51:45.040Z,96483.06
2022-10-22T14:54:13.916Z,96464.38
2022-10-22T14:56:42.610Z,96482.25
2022-10-22T14:59:11.453Z,96478.16
2022-10-22T15:01:41.306Z,96468.53
2022-10-22T15:04:10.855Z,96477.81
2022-10-22T15:06:39.672Z,96467.78
2022-10-22T15:09:08.670Z,96458.06
2022-10-22T15:11:38.469Z,96465.81
2022-10-22T15:14:07.254Z,96465.16
2022-10-22T15:16:36.135Z,96449.75
2022-10-22T15:19:05.190Z,96468.75
2022-10-22T15:21:34.100Z,96463.72
2022-10-22T15:24:02.946Z,96461.72
2022-10-22T15:26:31.775Z,96450.28
2022-10-22T15:29:00.560Z,96466.16
2022-10-22T15:31:52.819Z,96468.34
2022-10-22T15:34:27.974Z,96466.78
2022-10-22T15:36:58.495Z,96450.94
2022-10-22T15:39:27.571Z,96456.06
2022-10-22T15:41:57.504Z,96455.28
2022-10-22T15:44:29.656Z,96448.69
2022-10-22T15:46:59.485Z,96440.81
2022-10-22T15:49:29.436Z,96440.66
2022-10-22T15:51:58.234Z,96449.75
2022-10-22T15:54:29.792Z,96449.75
2022-10-22T15:57:00.543Z,96442.81
2022-10-22T15:59:29.543Z,96444.41
2022-10-22T16:01:59.116Z,96439.69
2022-10-22T16:04:28.575Z,96412.97
2022-10-22T16:06:58.497Z,96407.81
2022-10-22T16:09:28.465Z,96402.97
2022-10-22T16:11:57.379Z,96403.88
2022-10-22T16:14:26.505Z,96409.47
2022-10-22T16:16:56.762Z,96410.56
2022-10-22T16:19:26.263Z,96410.66
2022-10-22T16:21:57.145Z,96407.25
2022-10-22T16:24:25.919Z,96386.72
2022-10-22T16:26:54.785Z,96398.81
2022-10-22T16:29:23.628Z,96387.66
2022-10-22T16:31:52.457Z,96367.75
2022-10-22T16:34:21.229Z,96375.63
2022-10-22T16:39:19.263Z,96379.94
2022-10-22T16:41:48.039Z,96377.13
2022-10-22T16:44:16.952Z,96354.22
2022-10-22T16:46:45.834Z,96367.84
2022-10-22T16:49:15.477Z,96353.63
2022-10-22T16:51:44.243Z,96369.75
2022-10-22T16:54:15.502Z,96349.06
2022-10-22T16:56:44.378Z,96350.16
2022-10-22T16:59:13.736Z,96354.91
2022-10-22T17:01:43.364Z,96354.56
2022-10-22T17:04:12.289Z,96342.31
2022-10-22T17:06:41.093Z,96337.63
2022-10-22T17:09:11.442Z,96326.31
2022-10-22T17:11:42.520Z,96333.50
2022-10-22T17:14:13.124Z,96331.63
2022-10-22T17:16:41.901Z,96322.56
2022-10-22T17:19:16.264Z,96332.59
2022-10-22T17:21:45.072Z,96334.03
2022-10-22T17:24:13.840Z,96328.84
2022-10-22T17:26:42.804Z,96324.63
2022-10-22T17:29:12.824Z,96320.97
2022-10-22T17:31:42.483Z,96318.56
2022-10-22T17:34:16.837Z,96299.84
2022-10-22T17:36:45.703Z,96302.53
2022-10-22T17:39:19.179Z,96283.97
2022-10-22T17:41:48.605Z,96291.91
2022-10-22T17:44:17.816Z,96285.94
2022-10-22T17:46:46.672Z,96278.34
2022-10-22T17:49:21.471Z,96271.91
2022-10-22T17:51:50.455Z,96275.22
2022-10-22T17:54:19.455Z,96263.63
2022-10-22T17:56:49.533Z,96270.22
2022-10-22T17:59:19.878Z,96257.34
2022-10-22T18:01:49.837Z,96254.69
2022-10-22T18:04:20.278Z,96244.94
2022-10-22T18:06:49.661Z,96245.53
2022-10-22T18:09:22.357Z,96216.28
2022-10-22T18:11:53.128Z,96236.50
2022-10-22T18:14:23.622Z,96249.66
2022-10-22T18:16:52.522Z,96250.59
2022-10-22T18:19:25.075Z,96238.84
2022-10-22T18:21:53.889Z,96248.03
2022-10-22T18:24:22.880Z,96248.81
2022-10-22T18:26:51.710Z,96250.59
2022-10-22T18:29:21.393Z,96245.69
2022-10-22T18:31:50.371Z,96234.66
2022-10-22T18:34:21.766Z,96226.28
2022-10-22T18:36:52.817Z,96223.56
2022-10-22T18:39:21.617Z,96231.63
2022-10-22T18:41:50.489Z,96226.41
2022-10-22T18:44:19.473Z,96226.75
2022-10-22T18:46:48.587Z,96228.91
2022-10-22T18:49:19.705Z,96216.75
2022-10-22T18:51:53.192Z,96213.66
2022-10-22T18:54:24.221Z,96214.31
2022-10-22T18:56:56.273Z,96200.72
2022-10-22T18:59:28.003Z,96187.66
2022-10-22T19:02:00.058Z,96184.25
2022-10-22T19:04:34.194Z,96186.25
2022-10-22T19:07:05.864Z,96181.66
2022-10-22T19:09:35.088Z,96169.16
2022-10-22T19:12:04.088Z,96173.06
2022-10-22T19:14:34.830Z,96153.78
2022-10-22T19:17:03.736Z,96160.91
2022-10-22T19:19:32.542Z,96162.28
2022-10-22T19:22:01.378Z,96147.00
2022-10-22T19:24:30.339Z,96148.56
2022-10-22T19:26:59.491Z,96145.09
2022-10-22T19:29:29.188Z,96126.94
2022-10-22T19:31:58.074Z,96129.34
2022-10-22T19:34:27.386Z,96130.94
2022-10-22T19:36:57.132Z,96121.44
2022-10-22T19:39:25.872Z,96111.63
2022-10-22T19:41:54.630Z,96096.25
2022-10-22T19:44:23.473Z,96088.56
2022-10-22T19:46:52.220Z,96085.06
2022-10-22T19:49:22.970Z,96082.19
2022-10-22T19:51:51.965Z,96072.25
2022-10-22T19:54:21.061Z,96067.69
2022-10-22T19:56:50.750Z,96068.91
2022-10-22T19:59:23.145Z,96040.44
2022-10-22T20:01:52.980Z,96050.72
2022-10-22T20:04:25.604Z,96036.53
2022-10-22T20:06:55.560Z,96024.03
2022-10-22T20:09:25.378Z,96030.16
2022-10-22T20:11:54.169Z,96023.59
2022-10-22T20:14:22.914Z,96024.81
2022-10-22T20:16:52.435Z,96005.72
2022-10-22T20:19:21.221Z,96011.84
2022-10-22T20:21:51.099Z,96008.19
2022-10-22T20:24:20.411Z,95992.69
2022-10-22T20:26:49.247Z,96007.06
2022-10-22T20:29:19.639Z,96001.34
2022-10-22T20:31:48.923Z,96000.22
2022-10-22T20:34:18.462Z,96003.34
2022-10-22T20:36:47.684Z,95996.19
2022-10-22T20:39:17.680Z,95995.75
2022-10-22T20:41:46.462Z,95992.75
2022-10-22T20:44:19.194Z,95977.91
2022-10-22T20:46:48.002Z,95988.84
2022-10-22T20:49:18.702Z,95990.59
2022-10-22T20:51:47.846Z,95990.69
2022-10-22T20:54:16.783Z,95990.59
2022-10-22T20:56:48.073Z,95988.00
2022-10-22T20:59:17.589Z,95978.84
2022-10-22T21:01:53.416Z,95967.78
2022-10-22T21:04:22.924Z,95968.78
2022-10-22T21:06:52.773Z,95933.06
2022-10-22T21:09:22.193Z,95950.72
2022-10-22T21:14:27.954Z,95934.63
2022-10-22T21:16:57.012Z,95921.56
2022-10-22T21:19:27.176Z,95933.59
2022-10-22T21:21:56.013Z,95921.06
2022-10-22T21:24:26.821Z,95918.84
2022-10-22T21:26:56.612Z,95916.81
2022-10-22T21:29:25.408Z,95922.63
2022-10-22T21:31:54.517Z,95910.25
2022-10-22T21:34:23.743Z,95909.22
2022-10-22T21:36:53.438Z,95899.09
2022-10-22T21:39:22.266Z,95898.66
2022-10-22T21:41:50.993Z,95890.28
2022-10-22T21:44:19.865Z,95890.19
2022-10-22T21:46:48.691Z,95875.94
2022-10-22T21:49:17.422Z,95866.19
2022-10-22T21:51:46.206Z,95871.59
2022-10-22T21:54:15.463Z,95881.22
2022-10-22T21:56:44.340Z,95870.59
2022-10-22T21:59:13.150Z,95873.28
2022-10-22T22:01:42.280Z,95859.69
2022-10-22T22:04:11.561Z,95862.09
2022-10-22T22:06:40.382Z,95864.19
2022-10-22T22:09:09.353Z,95857.19
2022-10-22T22:11:38.265Z,95850.69
2022-10-22T22:14:07.794Z,95859.88
2022-10-22T22:16:36.698Z,95853.47
2022-10-22T22:19:08.222Z,95853.38
2022-10-22T22:21:41.812Z,95850.88
2022-10-22T22:24:13.485Z,95841.13
2022-10-22T22:26:42.386Z,95846.88
2022-10-22T22:29:11.691Z,95826.50
2022-10-22T22:31:40.886Z,95833.50
2022-10-22T22:34:13.386Z,95838.44
2022-10-22T22:36:47.614Z,95824.50
2022-10-22T22:39:23.176Z,95829.19
2022-10-22T22:41:52.428Z,95826.16
2022-10-22T22:44:21.455Z,95813.16
2022-10-22T22:46:50.546Z,95798.75
2022-10-22T22:49:19.321Z,95806.78
2022-10-22T22:51:49.375Z,95801.78
2022-10-22T22:54:19.240Z,95804.97
2022-10-22T22:56:50.978Z,95797.28
2022-10-22T22:59:19.830Z,95796.06
2022-10-22T23:01:51.655Z,95785.78
2022-10-22T23:04:25.840Z,95794.78
2022-10-22T23:06:54.722Z,95788.97
2022-10-22T23:09:23.471Z,95781.63
2022-10-22T23:11:52.676Z,95785.78
2022-10-22T23:14:21.646Z,95775.06
2022-10-22T23:16:52.187Z,95785.00
2022-10-22T23:19:23.601Z,95792.72
2022-10-22T23:21:55.058Z,95785.69
2022-10-22T23:24:27.576Z,95790.63
2022-10-22T23:26:57.631Z,95785.78
2022-10-22T23:29:31.567Z,95780.09
2022-10-22T23:32:02.872Z,95771.59
2022-10-22T23:34:33.060Z,95768.75
2022-10-22T23:37:01.967Z,95769.97
2022-10-22T23:39:31.748Z,95763.41
2022-10-22T23:42:00.497Z,95758.47
2022-10-22T23:44:29.341Z,95745.50
2022-10-22T23:46:58.278Z,95743.94
2022-10-22T23:49:27.061Z,95715.34
2022-10-22T23:51:55.820Z,95731.59
2022-10-22T23:54:24.603Z,95729.28
2022-10-22T23:56:53.431Z,95724.59
2022-10-22T23:59:22.238Z,95721.91
